AirNav   Air Wisconsin Up To $57,000 Bonus
 
 1559 users online  

23IA Shenandoah Hospital Heliport
Shenandoah, Iowa, USA

GOING TO SHENANDOAH?


FAA INFORMATION EFFECTIVE 02 JANUARY 2020

Location

FAA Identifier: 23IA
Lat/Long: 40-45-09.9800N 095-22-07.9500W
40-45.166333N 095-22.132500W
40.7527722,-95.3688750
(estimated)
Elevation: 1039 ft. / 317 m (estimated)
Variation: 05E (1995)
Time zone: UTC -6 (UTC -5 during Daylight Saving Time)
Zip code: 51601

Heliport Operations

Heliport use: Private use, MEDICAL USE.
Activation date: 12/1999
Control tower: no
ARTCC: MINNEAPOLIS CENTER
FSS: FORT DODGE FLIGHT SERVICE STATION
Attendance: UNATNDD
Segmented circle: no

Heliport Communications

WX AWOS-3 at SDA (2.0 nm W): 125.525 (712-246-4021)
WX AWOS-3 at ICL (16 nm E): 132.025 (712-542-3345)
WX AWOS-3P at RDK (16 nm N): 123.925 (712-623-3220)

Nearby radio navigation aids

VOR radial/distance  VOR name  Freq  Var
OVRr138/29.9OMAHA VORTAC116.3008E

 
NDB name  Hdg/Dist  Freq  Var  ID
SHENANDOAH083/1.841105ESDA ... -.. .-
NEBRASKA CITY063/24.134705EAFK .- ..-. -.-
PLATTSMOUTH110/27.232905EPMV .--. -- ...-

Heliport Services

Runway Information

Helipad H1

Dimensions: 40 x 40 ft. / 12 x 12 m
Surface: concrete
Traffic pattern: leftleft
Obstructions: bldg
12 FT BLDG 91 FT WEST OF HELIPAD.

Heliport Ownership and Management from official FAA records

Ownership: Privately-owned
Owner: SHENANDOAH MEMORIAL HOSITAL
300 PERSHING AVE.
SHENANDOAH, IA 51601
Phone 712-246-1230
Manager: CHUCK DOUGHERTY
300 PERSHING AVE.
SHENANDOAH, IA 51601
Phone (712) 246-7223
CDOUGHERTY@SMCHOSPITAL.COM

Additional Remarks

FOR CD CTC OMAHA APCH AT 402-682-4395.

Instrument Procedures

There are no published instrument procedures at 23IA.

Some nearby airports with instrument procedures:

KSDA - Shenandoah Municipal Airport (2 nm W)
KICL - Schenck Field Airport (16 nm E)
KRDK - Red Oak Municipal Airport (16 nm N)
K57 - Gould Peterson Municipal Airport (18 nm S)
KAFK - Nebraska City Municipal Airport (24 nm W)
 
Loc | Ops | Rwys | IFR | FBO | Links
Com | Nav | Svcs | Stats | Notes
Area around 23IA (Shenandoah Hospital Heliport)
 
Road maps at: MapQuest Bing Google
 
Aerial photo
No photo
 
Sectional chart

 
Airport distance calculator
Flying to Shenandoah Hospital Heliport? Find the distance to fly.

From to 23IA

Sunrise and sunset
Times for 22-Jan-2020
 Local
(UTC-6)
 Zulu
(UTC)
Morning civil twilight07:1113:11
Sunrise07:4113:41
Sunset17:2623:26
Evening civil twilight17:5523:55

Current date and time
Zulu (UTC)  22-Jan-2020 20:22:49
Local (UTC-6)  22-Jan-2020 14:22:49
 
METAR
KSDA 
2nm W 
221955Z AUTO 17012KT 5SM BR BKN007 BKN011 BKN018 01/01 A2984 RMK AO2
KICL 
16nm E 
221955Z AUTO 18010G15KT 2SM BR BKN006 01/01 A2988 RMK AO2
KRDK 
16nm N 
221955Z AUTO 17011KT 3SM BR BKN006 OVC009 01/01 A2985 RMK AO2
TAF
KOFF 
33nm NW 
221800Z 2218/2324 13009KT 3200 -SN BR OVC003 620039 QNH2983INS BECMG 2223/2224 VRB06KT 9000 -SN BR OVC007 620079 QNH2983INS BECMG 2303/2304 VRB06KT 9000 BR OVC007 620079 QNH2990INS BECMG 2307/2308 VRB06KT 8000 -SN BR OVC007 620079 QNH2999INS BECMG 2313/2314 33009KT 6000 -SN OVC007 620079 QNH2999INS TX02/2222Z TNM01/2312Z
NOTAMs
Click for the latest NOTAMs
NOTAMs are issued by the DoD/FAA and will open in a separate window not controlled by AirNav.

 

 
 

Would you like to see your business listed on this page?

 If your business provides an interesting product or service to pilots, flight crews, aircraft, or users of the Shenandoah Hospital Heliport, you should consider listing it here.  To start the listing process, click on the button below
 
Add a business
 

Other Pages about Shenandoah Hospital Heliport

Update a link
 
Copyright © AirNav, LLC. All rights reserved. Privacy Policy  Contact